Terminal Aerodrome Forecast
Issued by NWS Cleveland, OH

Home | Current Version | Previous Version | Text Only | Print | Product List | Glossary On
Versions: 1 2 3 4 5 6 7 8 9 10 11 12 13 14
000
FTUS41 KCLE 231122
TAFYNG
TAF
KYNG 231122Z 2312/2412 22004KT P6SM BKN150
     FM231700 23008KT P6SM BKN080
     FM240100 22005KT P6SM SCT090=

USA.gov is the U.S. government's official web portal to all federal, state and local government web resources and services.